createdAt,value
2022-08-26T00:02:05.939Z,19.00
2022-08-26T00:04:34.211Z,19.00
2022-08-26T00:07:03.731Z,18.90
2022-08-26T00:09:38.889Z,18.90
2022-08-26T00:12:09.330Z,18.80
2022-08-26T00:14:41.701Z,18.80
2022-08-26T00:17:10.102Z,18.70
2022-08-26T00:19:38.324Z,18.70
2022-08-26T00:22:07.814Z,18.60
2022-08-26T00:24:35.699Z,18.60
2022-08-26T00:27:03.735Z,18.50
2022-08-26T00:29:35.553Z,18.50
2022-08-26T00:32:06.658Z,18.40
2022-08-26T00:34:36.606Z,18.30
2022-08-26T00:37:05.188Z,18.30
2022-08-26T00:39:39.215Z,18.30
2022-08-26T00:42:07.551Z,18.30
2022-08-26T00:44:35.414Z,18.30
2022-08-26T00:47:08.184Z,18.30
2022-08-26T00:49:40.639Z,18.30
2022-08-26T00:52:13.266Z,18.30
2022-08-26T00:54:50.339Z,18.20
2022-08-26T00:57:20.592Z,18.20
2022-08-26T00:59:53.034Z,18.20
2022-08-26T01:02:21.907Z,18.20
2022-08-26T01:04:55.585Z,18.10
2022-08-26T01:07:26.171Z,18.10
2022-08-26T01:09:57.499Z,18.00
2022-08-26T01:12:27.465Z,18.00
2022-08-26T01:14:56.623Z,18.00
2022-08-26T01:17:24.720Z,17.90
2022-08-26T01:19:58.216Z,17.90
2022-08-26T01:22:31.059Z,17.90
2022-08-26T01:25:03.676Z,17.80
2022-08-26T01:27:33.743Z,17.80
2022-08-26T01:30:03.268Z,17.70
2022-08-26T01:32:33.797Z,17.70
2022-08-26T01:35:02.434Z,17.70
2022-08-26T01:37:36.494Z,17.70
2022-08-26T01:40:08.560Z,17.70
2022-08-26T01:42:36.748Z,17.60
2022-08-26T01:45:10.153Z,17.60
2022-08-26T01:47:39.605Z,17.50
2022-08-26T01:50:13.534Z,17.50
2022-08-26T01:52:57.056Z,17.40
2022-08-26T01:55:32.286Z,17.40
2022-08-26T01:58:04.617Z,17.30
2022-08-26T02:00:34.792Z,17.30
2022-08-26T02:03:17.669Z,17.30
2022-08-26T02:05:48.788Z,17.20
2022-08-26T02:08:24.864Z,17.10
2022-08-26T02:10:55.552Z,17.10
2022-08-26T02:13:27.349Z,17.10
2022-08-26T02:15:56.183Z,17.10
2022-08-26T02:18:26.125Z,17.10
2022-08-26T02:20:56.352Z,17.10
2022-08-26T02:23:24.949Z,17.10
2022-08-26T02:25:58.858Z,17.10
2022-08-26T02:28:30.722Z,17.10
2022-08-26T02:30:58.750Z,17.20
2022-08-26T02:33:29.171Z,17.20
2022-08-26T02:35:57.308Z,17.10
2022-08-26T02:38:25.479Z,17.10
2022-08-26T02:40:54.893Z,17.10
2022-08-26T02:43:31.356Z,17.10
2022-08-26T02:46:01.906Z,17.00
2022-08-26T02:48:30.776Z,17.00
2022-08-26T02:51:00.175Z,16.90
2022-08-26T02:53:28.465Z,16.90
2022-08-26T02:56:01.371Z,16.80
2022-08-26T02:58:29.394Z,16.80
2022-08-26T03:00:57.302Z,16.80
2022-08-26T03:03:25.234Z,16.70
2022-08-26T03:05:53.222Z,16.60
2022-08-26T03:08:23.959Z,16.60
2022-08-26T03:10:53.230Z,16.50
2022-08-26T03:13:22.463Z,16.50
2022-08-26T03:15:50.520Z,16.50
2022-08-26T03:18:18.576Z,16.50
2022-08-26T03:20:48.465Z,16.50
2022-08-26T03:23:16.714Z,16.50
2022-08-26T03:25:50.419Z,16.50
2022-08-26T03:28:19.282Z,16.50
2022-08-26T03:30:48.084Z,16.40
2022-08-26T03:33:17.280Z,16.40
2022-08-26T03:35:47.815Z,16.40
2022-08-26T03:38:19.779Z,16.40
2022-08-26T03:40:48.237Z,16.40
2022-08-26T03:43:17.682Z,16.40
2022-08-26T03:45:47.810Z,16.30
2022-08-26T03:48:15.782Z,16.30
2022-08-26T03:50:43.894Z,16.30
2022-08-26T03:53:12.835Z,16.30
2022-08-26T03:55:41.308Z,16.20
2022-08-26T03:58:09.520Z,16.20
2022-08-26T04:00:37.501Z,16.20
2022-08-26T04:03:09.747Z,16.20
2022-08-26T04:05:38.562Z,16.10
2022-08-26T04:08:06.869Z,16.10
2022-08-26T04:10:38.285Z,16.10
2022-08-26T04:13:06.718Z,16.00
2022-08-26T04:15:34.665Z,16.00
2022-08-26T04:18:02.610Z,16.00
2022-08-26T04:20:32.310Z,16.00
2022-08-26T04:23:00.209Z,16.10
2022-08-26T04:25:28.190Z,16.10
2022-08-26T04:27:56.166Z,16.20
2022-08-26T04:30:25.346Z,16.20
2022-08-26T04:32:55.820Z,16.20
2022-08-26T04:35:26.026Z,16.20
2022-08-26T04:37:55.987Z,16.20
2022-08-26T04:40:26.636Z,16.10
2022-08-26T04:42:54.741Z,16.20
2022-08-26T04:45:23.077Z,16.10
2022-08-26T04:47:56.784Z,16.20
2022-08-26T04:50:25.704Z,16.20
2022-08-26T04:52:56.321Z,16.20
2022-08-26T04:55:39.885Z,16.20
2022-08-26T04:58:15.910Z,16.30
2022-08-26T05:00:45.073Z,16.30
2022-08-26T05:03:13.616Z,16.30
2022-08-26T05:05:43.246Z,16.40
2022-08-26T05:08:13.975Z,16.40
2022-08-26T05:10:42.649Z,16.50
2022-08-26T05:13:15.125Z,16.70
2022-08-26T05:15:43.998Z,16.90
2022-08-26T05:18:13.805Z,17.30
2022-08-26T05:20:42.973Z,17.60
2022-08-26T05:23:12.285Z,18.00
2022-08-26T05:25:42.984Z,18.40
2022-08-26T05:28:12.131Z,18.80
2022-08-26T05:30:40.845Z,19.20
2022-08-26T05:33:09.998Z,19.60
2022-08-26T05:35:39.070Z,19.90
2022-08-26T05:38:12.591Z,20.30
2022-08-26T05:40:44.543Z,20.60
2022-08-26T05:43:14.626Z,21.00
2022-08-26T05:45:46.109Z,21.30
2022-08-26T05:48:15.599Z,21.60
2022-08-26T05:50:46.364Z,21.90
2022-08-26T05:53:16.319Z,22.10
2022-08-26T05:55:49.120Z,22.30
2022-08-26T05:58:20.055Z,22.60
2022-08-26T06:00:57.617Z,22.80
2022-08-26T06:03:25.847Z,23.00
2022-08-26T06:05:54.191Z,23.20
2022-08-26T06:08:22.735Z,23.40
2022-08-26T06:10:54.896Z,23.60
2022-08-26T06:13:25.537Z,23.80
2022-08-26T06:15:54.790Z,24.00
2022-08-26T06:18:32.557Z,24.20
2022-08-26T06:21:00.765Z,24.40
2022-08-26T06:23:48.180Z,24.60
2022-08-26T06:26:18.281Z,24.80
2022-08-26T06:28:46.188Z,24.90
2022-08-26T06:31:15.903Z,25.00
2022-08-26T06:33:44.334Z,25.10
2022-08-26T06:36:18.603Z,25.20
2022-08-26T06:38:48.001Z,25.30
2022-08-26T06:41:18.182Z,25.40
2022-08-26T06:43:46.101Z,25.50
2022-08-26T06:46:17.146Z,25.70
2022-08-26T06:48:45.988Z,25.80
2022-08-26T06:51:17.043Z,25.80
2022-08-26T06:53:47.023Z,25.70
2022-08-26T06:56:20.080Z,25.70
2022-08-26T06:58:48.433Z,25.60
2022-08-26T07:01:18.363Z,25.50
2022-08-26T07:03:48.910Z,25.40
2022-08-26T07:06:18.555Z,25.40
2022-08-26T07:08:46.791Z,25.30
2022-08-26T07:11:17.322Z,25.30
2022-08-26T07:13:45.252Z,25.40
2022-08-26T07:16:15.475Z,25.40
2022-08-26T07:18:45.964Z,25.60
2022-08-26T07:21:17.241Z,25.90
2022-08-26T07:23:46.265Z,26.20
2022-08-26T07:26:19.145Z,26.50
2022-08-26T07:28:48.675Z,26.80
2022-08-26T07:31:18.185Z,27.00
2022-08-26T07:33:46.876Z,27.00
2022-08-26T07:36:18.335Z,27.10
2022-08-26T07:38:48.060Z,27.00
2022-08-26T07:41:19.950Z,26.90
2022-08-26T07:43:48.149Z,26.90
2022-08-26T07:46:27.158Z,26.90
2022-08-26T07:48:58.633Z,26.90
2022-08-26T07:51:27.953Z,27.00
2022-08-26T07:53:59.572Z,27.20
2022-08-26T07:56:33.025Z,27.50
2022-08-26T07:59:01.648Z,27.80
2022-08-26T08:01:31.479Z,28.10
2022-08-26T08:04:01.258Z,28.10
2022-08-26T08:06:33.078Z,27.90
2022-08-26T08:09:01.423Z,27.90
2022-08-26T08:11:33.282Z,28.00
2022-08-26T08:14:01.696Z,28.20
2022-08-26T08:16:32.393Z,28.40
2022-08-26T08:19:02.407Z,28.60
2022-08-26T08:21:31.865Z,28.80
2022-08-26T08:24:00.547Z,28.80
2022-08-26T08:26:29.757Z,29.00
2022-08-26T08:28:58.525Z,29.20
2022-08-26T08:34:18.167Z,29.60
2022-08-26T08:36:46.699Z,29.80
2022-08-26T08:39:15.028Z,29.90
2022-08-26T08:41:54.574Z,30.00
2022-08-26T08:47:02.244Z,30.40
2022-08-26T08:49:31.950Z,30.40
2022-08-26T08:56:19.605Z,30.80
2022-08-26T08:59:34.149Z,30.80
2022-08-26T09:02:15.738Z,30.80
2022-08-26T09:05:02.319Z,30.90
2022-08-26T09:07:39.848Z,30.80
2022-08-26T09:10:37.275Z,30.60
2022-08-26T09:13:08.119Z,30.70
2022-08-26T09:15:49.535Z,30.00
2022-08-26T09:18:29.216Z,29.90
2022-08-26T09:21:03.281Z,29.60
2022-08-26T09:23:34.007Z,29.50
2022-08-26T09:26:14.504Z,29.20
2022-08-26T09:28:46.396Z,28.60
2022-08-26T09:31:21.244Z,28.30
2022-08-26T09:34:06.292Z,28.00
2022-08-26T09:36:41.359Z,27.60
2022-08-26T09:39:28.260Z,27.30
2022-08-26T09:42:05.613Z,26.90
2022-08-26T09:44:34.640Z,26.60
2022-08-26T09:47:06.589Z,26.40
2022-08-26T09:49:37.133Z,26.40
2022-08-26T09:52:20.726Z,26.40
2022-08-26T09:55:02.179Z,26.10
2022-08-26T09:57:34.213Z,26.20
2022-08-26T10:00:03.476Z,26.20
2022-08-26T10:02:47.882Z,26.20
2022-08-26T10:05:27.516Z,26.30
2022-08-26T10:07:59.563Z,26.30
2022-08-26T10:10:34.753Z,26.40
2022-08-26T10:13:08.934Z,26.50
2022-08-26T10:15:50.022Z,26.60
2022-08-26T10:18:25.048Z,26.90
2022-08-26T10:21:02.630Z,27.30
2022-08-26T10:23:35.638Z,27.50
2022-08-26T10:26:09.357Z,27.80
2022-08-26T10:28:42.518Z,28.20
2022-08-26T10:31:27.675Z,28.20
2022-08-26T10:34:00.446Z,28.20
2022-08-26T10:39:46.019Z,28.10
2022-08-26T10:42:22.663Z,27.80
2022-08-26T10:44:56.342Z,27.70
2022-08-26T10:47:33.475Z,27.60
2022-08-26T10:50:04.184Z,27.30
2022-08-26T10:52:42.636Z,27.10
2022-08-26T10:55:19.632Z,26.80
2022-08-26T10:57:55.491Z,26.50
2022-08-26T11:00:48.358Z,26.20
2022-08-26T11:03:31.450Z,26.00
2022-08-26T11:06:25.223Z,25.90
2022-08-26T11:08:54.716Z,25.80
2022-08-26T11:11:42.834Z,25.80
2022-08-26T11:14:11.805Z,25.80
2022-08-26T11:16:44.399Z,25.70
2022-08-26T11:19:59.033Z,25.50
2022-08-26T11:22:29.124Z,25.40
2022-08-26T11:25:11.603Z,25.40
2022-08-26T11:28:05.120Z,25.40
2022-08-26T11:30:45.216Z,25.50
2022-08-26T11:33:57.005Z,25.50
2022-08-26T11:36:59.066Z,25.60
2022-08-26T11:39:31.110Z,25.60
2022-08-26T11:42:05.547Z,25.50
2022-08-26T11:44:41.265Z,25.40
2022-08-26T11:47:25.799Z,25.30
2022-08-26T11:50:08.020Z,25.10
2022-08-26T11:52:37.565Z,25.00
2022-08-26T11:55:08.024Z,24.90
2022-08-26T11:57:41.577Z,24.90
2022-08-26T12:00:14.318Z,25.00
2022-08-26T12:02:45.129Z,25.00
2022-08-26T12:05:17.094Z,25.00
2022-08-26T12:07:51.155Z,25.00
2022-08-26T12:10:29.838Z,25.00
2022-08-26T12:12:59.470Z,25.00
2022-08-26T12:15:29.749Z,25.00
2022-08-26T12:17:59.270Z,25.00
2022-08-26T12:20:46.088Z,24.90
2022-08-26T12:23:27.790Z,24.90
2022-08-26T12:26:06.062Z,24.80
2022-08-26T12:28:34.476Z,24.80
2022-08-26T12:31:06.075Z,24.60
2022-08-26T12:33:36.613Z,24.40
2022-08-26T12:36:05.853Z,24.00
2022-08-26T12:38:37.741Z,23.80
2022-08-26T12:41:05.937Z,23.70
2022-08-26T12:43:39.897Z,23.50
2022-08-26T12:46:10.237Z,23.50
2022-08-26T12:48:41.142Z,23.50
2022-08-26T12:51:16.928Z,23.50
2022-08-26T12:53:46.204Z,23.60
2022-08-26T12:56:27.796Z,23.40
2022-08-26T12:59:10.272Z,23.30
2022-08-26T13:01:44.080Z,23.10
2022-08-26T13:04:36.141Z,23.00
2022-08-26T13:07:24.776Z,23.00
2022-08-26T13:09:56.126Z,22.90
2022-08-26T13:12:27.265Z,23.00
2022-08-26T13:14:55.676Z,23.00
2022-08-26T13:17:23.705Z,22.90
2022-08-26T13:19:51.684Z,22.70
2022-08-26T13:22:24.197Z,22.30
2022-08-26T13:24:56.207Z,22.00
2022-08-26T13:27:27.281Z,22.00
2022-08-26T13:29:57.093Z,22.00
2022-08-26T13:32:27.290Z,21.90
2022-08-26T13:34:57.406Z,21.80
2022-08-26T13:37:34.392Z,21.80
2022-08-26T13:40:06.241Z,22.00
2022-08-26T13:42:34.433Z,21.90
2022-08-26T13:45:02.817Z,21.90
2022-08-26T13:47:30.953Z,21.90
2022-08-26T13:49:58.956Z,21.90
2022-08-26T13:52:30.224Z,21.80
2022-08-26T13:54:59.282Z,22.00
2022-08-26T13:57:29.912Z,22.10
2022-08-26T13:59:59.043Z,22.30
2022-08-26T14:02:27.181Z,22.50
2022-08-26T14:04:55.895Z,22.60
2022-08-26T14:07:24.343Z,22.70
2022-08-26T14:09:52.388Z,22.70
2022-08-26T14:12:20.410Z,22.80
2022-08-26T14:14:49.622Z,22.80
2022-08-26T14:17:21.147Z,22.90
2022-08-26T14:19:50.818Z,22.90
2022-08-26T14:22:21.126Z,22.80
2022-08-26T14:24:50.247Z,22.70
2022-08-26T14:27:18.221Z,22.70
2022-08-26T14:29:46.180Z,22.60
2022-08-26T14:32:24.374Z,22.70
2022-08-26T14:34:52.290Z,22.60
2022-08-26T14:37:21.066Z,22.50
2022-08-26T14:39:49.389Z,22.60
2022-08-26T14:42:22.386Z,22.70
2022-08-26T14:44:54.532Z,22.70
2022-08-26T14:47:23.930Z,22.80
2022-08-26T14:49:52.309Z,22.90
2022-08-26T14:52:20.404Z,23.00
2022-08-26T14:54:47.597Z,23.00
2022-08-26T14:57:23.251Z,22.90
2022-08-26T14:59:53.071Z,22.80
2022-08-26T15:02:33.566Z,22.70
2022-08-26T15:05:04.994Z,22.70
2022-08-26T15:07:33.027Z,22.70
2022-08-26T15:10:01.076Z,22.90
2022-08-26T15:12:28.956Z,23.00
2022-08-26T15:14:56.882Z,23.00
2022-08-26T15:17:25.167Z,23.00
2022-08-26T15:19:53.425Z,23.20
2022-08-26T15:22:22.989Z,23.20
2022-08-26T15:24:51.844Z,23.30
2022-08-26T15:27:21.876Z,23.40
2022-08-26T15:29:49.832Z,23.50
2022-08-26T15:32:17.729Z,23.60
2022-08-26T15:34:45.666Z,23.60
2022-08-26T15:37:13.672Z,23.70
2022-08-26T15:39:43.210Z,23.60
2022-08-26T15:42:14.716Z,23.60
2022-08-26T15:44:44.511Z,23.40
2022-08-26T15:47:12.659Z,23.40
2022-08-26T15:49:41.120Z,23.30
2022-08-26T15:52:09.531Z,23.10
2022-08-26T15:54:37.465Z,23.10
2022-08-26T15:57:09.500Z,23.00
2022-08-26T15:59:39.443Z,22.90
2022-08-26T16:02:08.105Z,22.90
2022-08-26T16:04:36.259Z,22.90
2022-08-26T16:07:04.893Z,22.90
2022-08-26T16:09:32.957Z,22.90
2022-08-26T16:12:00.946Z,22.90
2022-08-26T16:14:30.296Z,23.00
2022-08-26T16:16:58.362Z,23.10
2022-08-26T16:19:26.350Z,23.20
2022-08-26T16:21:54.329Z,23.30
2022-08-26T16:24:25.926Z,23.40
2022-08-26T16:26:55.350Z,23.50
2022-08-26T16:29:24.466Z,23.50
2022-08-26T16:31:54.705Z,23.60
2022-08-26T16:34:22.893Z,23.60
2022-08-26T16:36:53.476Z,23.60
2022-08-26T16:39:21.439Z,23.60
2022-08-26T16:41:49.346Z,23.60
2022-08-26T16:44:17.359Z,23.60
2022-08-26T16:46:45.597Z,23.60
2022-08-26T16:49:15.089Z,23.60
2022-08-26T16:51:43.040Z,23.50
2022-08-26T16:54:10.945Z,23.40
2022-08-26T16:56:39.178Z,23.40
2022-08-26T16:59:09.475Z,23.40
2022-08-26T17:01:37.534Z,23.40
2022-08-26T17:04:05.539Z,23.30
2022-08-26T17:06:35.023Z,23.20
2022-08-26T17:09:02.920Z,23.20
2022-08-26T17:11:30.899Z,23.20
2022-08-26T17:13:59.146Z,23.10
2022-08-26T17:16:27.505Z,23.10
2022-08-26T17:18:57.020Z,23.00
2022-08-26T17:21:26.313Z,23.00
2022-08-26T17:23:56.359Z,23.00
2022-08-26T17:26:24.335Z,22.90
2022-08-26T17:28:52.555Z,22.90
2022-08-26T17:31:21.418Z,22.80
2022-08-26T17:33:53.318Z,22.80
2022-08-26T17:36:28.168Z,22.80
2022-08-26T17:38:59.275Z,22.80
2022-08-26T17:41:27.834Z,22.70
2022-08-26T17:43:56.221Z,22.70
2022-08-26T17:46:24.334Z,22.70
2022-08-26T17:48:52.347Z,22.70
2022-08-26T17:51:21.909Z,22.60
2022-08-26T17:53:50.469Z,22.60
2022-08-26T17:56:23.875Z,22.50
2022-08-26T17:58:52.535Z,22.50
2022-08-26T18:01:21.321Z,22.40
2022-08-26T18:03:49.963Z,22.40
2022-08-26T18:06:17.930Z,22.40
2022-08-26T18:08:46.234Z,22.40
2022-08-26T18:11:17.403Z,22.30
2022-08-26T18:13:47.821Z,22.30
2022-08-26T18:16:17.297Z,22.30
2022-08-26T18:18:45.385Z,22.30
2022-08-26T18:21:15.564Z,22.30
2022-08-26T18:23:43.782Z,22.20
2022-08-26T18:26:17.595Z,22.20
2022-08-26T18:28:46.877Z,22.20
2022-08-26T18:31:15.343Z,22.20
2022-08-26T18:33:44.014Z,22.10
2022-08-26T18:36:17.185Z,22.10
2022-08-26T18:38:45.433Z,22.00
2022-08-26T18:41:14.394Z,21.90
2022-08-26T18:43:42.456Z,21.90
2022-08-26T18:46:12.113Z,21.90
2022-08-26T18:48:41.236Z,21.90
2022-08-26T18:51:09.664Z,21.90
2022-08-26T18:53:41.965Z,21.80
2022-08-26T18:56:09.914Z,21.80
2022-08-26T18:58:37.991Z,21.70
2022-08-26T19:01:06.240Z,21.60
2022-08-26T19:03:35.557Z,21.60
2022-08-26T19:06:03.794Z,21.60
2022-08-26T19:08:31.868Z,21.60
2022-08-26T19:11:00.700Z,21.60
2022-08-26T19:13:28.605Z,21.60
2022-08-26T19:15:56.786Z,21.50
2022-08-26T19:18:24.703Z,21.60
2022-08-26T19:20:53.895Z,21.60
2022-08-26T19:23:32.448Z,21.50
2022-08-26T19:26:03.432Z,21.50
2022-08-26T19:28:32.451Z,21.50
2022-08-26T19:31:01.075Z,21.50
2022-08-26T19:33:29.484Z,21.50
2022-08-26T19:35:58.745Z,21.50
2022-08-26T19:38:27.884Z,21.50
2022-08-26T19:40:55.841Z,21.50
2022-08-26T19:43:23.749Z,21.50
2022-08-26T19:45:51.670Z,21.50
2022-08-26T19:48:20.445Z,21.50
2022-08-26T19:50:48.473Z,21.50
2022-08-26T19:53:17.789Z,21.50
2022-08-26T19:55:45.720Z,21.50
2022-08-26T19:58:14.201Z,21.40
2022-08-26T20:00:42.790Z,21.40
2022-08-26T20:03:14.823Z,21.40
2022-08-26T20:05:44.064Z,21.40
2022-08-26T20:08:22.015Z,21.40
2022-08-26T20:10:52.717Z,21.30
2022-08-26T20:13:21.856Z,21.30
2022-08-26T20:15:49.842Z,21.30
2022-08-26T20:18:35.476Z,21.10
2022-08-26T20:21:20.807Z,20.90
2022-08-26T20:23:48.805Z,20.80
2022-08-26T20:26:18.117Z,20.80
2022-08-26T20:28:46.107Z,20.80
2022-08-26T20:31:15.712Z,20.80
2022-08-26T20:33:46.287Z,20.80
2022-08-26T20:36:15.823Z,20.80
2022-08-26T20:38:46.993Z,20.80
2022-08-26T20:41:15.944Z,20.80
2022-08-26T20:43:49.634Z,20.80
2022-08-26T20:46:21.020Z,20.80
2022-08-26T20:48:51.241Z,20.80
2022-08-26T20:51:20.052Z,20.70
2022-08-26T20:53:48.053Z,20.70
2022-08-26T20:56:19.243Z,20.70
2022-08-26T20:58:47.171Z,20.70
2022-08-26T21:01:20.339Z,20.60
2022-08-26T21:03:52.067Z,20.60
2022-08-26T21:06:20.309Z,20.50
2022-08-26T21:08:48.563Z,20.50
2022-08-26T21:11:18.046Z,20.40
2022-08-26T21:14:04.525Z,20.40
2022-08-26T21:16:37.189Z,20.30
2022-08-26T21:19:06.090Z,20.30
2022-08-26T21:21:34.454Z,20.30
2022-08-26T21:24:02.624Z,20.30
2022-08-26T21:26:30.654Z,20.30
2022-08-26T21:28:58.782Z,20.20
2022-08-26T21:31:26.914Z,20.20
2022-08-26T21:33:58.833Z,20.20
2022-08-26T21:36:32.434Z,20.10
2022-08-26T21:39:01.211Z,20.10
2022-08-26T21:41:31.626Z,20.10
2022-08-26T21:44:43.896Z,20.10
2022-08-26T21:47:51.488Z,20.10
2022-08-26T21:55:42.455Z,20.00
2022-08-26T22:01:03.203Z,19.90
2022-08-26T22:03:47.028Z,19.90
2022-08-26T22:06:18.713Z,19.80
2022-08-26T22:08:46.947Z,19.80
2022-08-26T22:15:23.225Z,19.70
2022-08-26T22:17:51.260Z,19.70
2022-08-26T22:20:19.654Z,19.70
2022-08-26T22:22:48.938Z,19.70
2022-08-26T22:25:17.003Z,19.70
2022-08-26T22:27:44.981Z,19.70
2022-08-26T22:30:13.517Z,19.60
2022-08-26T22:32:42.138Z,19.60
2022-08-26T22:35:28.544Z,19.60
2022-08-26T22:37:59.555Z,19.60
2022-08-26T22:40:28.262Z,19.50
2022-08-26T22:42:58.643Z,19.50
2022-08-26T22:45:29.264Z,19.50
2022-08-26T22:47:57.211Z,19.50
2022-08-26T22:50:25.340Z,19.50
2022-08-26T22:52:53.467Z,19.50
2022-08-26T22:55:22.782Z,19.50
2022-08-26T22:57:52.770Z,19.40
2022-08-26T23:00:31.799Z,19.40
2022-08-26T23:03:00.882Z,19.40
2022-08-26T23:05:29.554Z,19.40
2022-08-26T23:07:57.674Z,19.40
2022-08-26T23:10:27.084Z,19.40
2022-08-26T23:12:55.322Z,19.50
2022-08-26T23:15:23.920Z,19.50
2022-08-26T23:17:58.797Z,19.50
2022-08-26T23:20:28.694Z,19.50
2022-08-26T23:22:57.017Z,19.50
2022-08-26T23:25:27.094Z,19.50
2022-08-26T23:27:55.087Z,19.50
2022-08-26T23:30:26.797Z,19.50
2022-08-26T23:32:57.385Z,19.50
2022-08-26T23:35:27.170Z,19.50
2022-08-26T23:37:55.456Z,19.50
2022-08-26T23:40:32.123Z,19.50
2022-08-26T23:43:03.243Z,19.60
2022-08-26T23:45:31.891Z,19.60
2022-08-26T23:48:00.442Z,19.60
2022-08-26T23:50:45.375Z,19.60
2022-08-26T23:53:19.307Z,19.60
2022-08-26T23:55:49.791Z,19.60
2022-08-26T23:58:19.469Z,19.60
